Time;durP1;ratioP1;P1;durP2;ratioP2;P2;SDS_P1;SDS_P2;PMS_P1;PMS_P2;Temp;Humidity;BMP_temperature;BMP_pressure;BME280_temperature;BME280_humidity;BME280_pressure;Samples;Min_cycle;Max_cycle;Signal;HPM_P1;HPM_P2
2023/12/18 00:02:06;;;;;;;19.92;10.07;;;9.00;99.90;;;;;;5053081;28;20044;-72
2023/12/18 00:04:32;;;;;;;25.88;9.82;;;8.90;99.90;;;;;;5053049;28;20033;-72
2023/12/18 00:06:58;;;;;;;27.98;10.85;;;9.00;99.90;;;;;;5052831;28;20102;-72
2023/12/18 00:09:23;;;;;;;22.38;9.85;;;8.90;99.90;;;;;;5053154;28;20400;-72
2023/12/18 00:11:49;;;;;;;23.90;9.68;;;9.00;99.90;;;;;;5052985;28;20033;-72
2023/12/18 00:14:14;;;;;;;18.05;8.77;;;9.00;99.90;;;;;;5053023;28;20124;-72
2023/12/18 00:16:40;;;;;;;23.60;9.63;;;9.00;99.90;;;;;;5052496;28;20086;-72
2023/12/18 00:19:06;;;;;;;20.65;8.70;;;9.10;99.90;;;;;;5052785;28;20098;-72
2023/12/18 00:21:32;;;;;;;19.40;8.82;;;9.00;99.90;;;;;;5053022;28;20060;-72
2023/12/18 00:23:57;;;;;;;27.52;9.57;;;9.00;99.90;;;;;;5052879;28;20037;-72
2023/12/18 00:26:23;;;;;;;20.42;8.60;;;9.10;99.90;;;;;;5051183;28;20045;-72
2023/12/18 00:28:49;;;;;;;18.05;9.35;;;9.00;99.90;;;;;;5052632;28;20150;-72
2023/12/18 00:31:15;;;;;;;18.02;8.23;;;9.00;99.90;;;;;;5051371;28;20524;-72
2023/12/18 00:33:41;;;;;;;30.83;10.10;;;9.00;99.90;;;;;;5052782;28;20037;-72
2023/12/18 00:36:07;;;;;;;23.05;8.05;;;9.00;99.90;;;;;;5050981;28;20116;-72
2023/12/18 00:38:33;;;;;;;23.27;8.63;;;9.00;99.90;;;;;;5052375;28;20551;-72
2023/12/18 00:40:59;;;;;;;15.52;8.50;;;9.10;99.90;;;;;;5052431;28;20083;-72
2023/12/18 00:43:24;;;;;;;17.20;8.02;;;9.10;99.90;;;;;;5052405;28;20077;-72
2023/12/18 00:45:50;;;;;;;19.15;8.38;;;9.10;99.90;;;;;;5051981;28;20051;-72
2023/12/18 00:48:15;;;;;;;20.25;8.77;;;9.00;99.90;;;;;;5052065;28;20039;-72
2023/12/18 00:50:41;;;;;;;22.42;9.77;;;9.10;99.90;;;;;;5052206;28;20508;-72
2023/12/18 00:53:06;;;;;;;17.48;8.50;;;9.00;99.90;;;;;;5052347;28;20124;-72
2023/12/18 00:55:32;;;;;;;27.42;9.35;;;9.10;99.90;;;;;;5052129;28;20132;-72
2023/12/18 00:57:58;;;;;;;17.58;8.82;;;9.10;99.90;;;;;;5051717;28;20037;-72
2023/12/18 01:00:23;;;;;;;26.45;8.95;;;9.00;99.90;;;;;;5052093;28;20051;-72
2023/12/18 01:02:50;;;;;;;20.10;9.18;;;9.10;99.90;;;;;;5047454;28;20037;-72
2023/12/18 01:05:15;;;;;;;21.30;8.18;;;9.00;99.90;;;;;;5051826;28;20045;-72
2023/12/18 01:07:42;;;;;;;19.90;9.13;;;9.00;99.90;;;;;;5051329;28;20082;-72
2023/12/18 01:10:08;;;;;;;24.55;10.25;;;9.00;99.90;;;;;;5051728;28;20557;-71
2023/12/18 01:12:33;;;;;;;17.92;8.52;;;9.00;99.90;;;;;;5052033;28;20029;-72
2023/12/18 01:14:59;;;;;;;25.25;9.82;;;9.00;99.90;;;;;;5051785;28;20171;-72
2023/12/18 01:17:25;;;;;;;24.25;8.90;;;9.00;99.90;;;;;;5051397;28;20404;-72
2023/12/18 01:19:50;;;;;;;23.17;10.25;;;8.90;99.90;;;;;;5051608;28;20496;-72
2023/12/18 01:22:16;;;;;;;16.08;8.13;;;9.00;99.90;;;;;;5051906;28;20037;-72
2023/12/18 01:24:41;;;;;;;35.05;10.50;;;9.00;99.90;;;;;;5051687;28;20052;-72
2023/12/18 01:27:07;;;;;;;23.17;9.45;;;9.00;99.90;;;;;;5050917;28;20120;-72
2023/12/18 01:29:32;;;;;;;23.25;10.63;;;8.90;99.90;;;;;;5050795;28;21529;-72
2023/12/18 01:31:58;;;;;;;23.70;9.30;;;9.00;99.90;;;;;;5050204;28;20033;-72
2023/12/18 01:34:23;;;;;;;27.67;9.23;;;9.00;99.90;;;;;;5051429;28;20496;-72
2023/12/18 01:36:49;;;;;;;15.55;8.65;;;9.00;99.90;;;;;;5051107;28;20037;-72
2023/12/18 01:39:15;;;;;;;18.58;7.55;;;9.00;99.90;;;;;;5051232;28;20041;-72
2023/12/18 01:41:40;;;;;;;24.02;9.02;;;9.00;99.90;;;;;;5051536;28;20037;-72
2023/12/18 01:44:06;;;;;;;17.05;8.48;;;9.00;99.90;;;;;;5051455;28;20105;-72
2023/12/18 01:46:34;;;;;;;18.50;8.90;;;9.00;99.90;;;;;;5050887;28;20037;-72
2023/12/18 01:49:01;;;;;;;20.98;8.52;;;9.00;99.90;;;;;;5051526;28;20037;-72
2023/12/18 01:51:27;;;;;;;25.27;7.43;;;8.90;99.90;;;;;;5051591;28;20128;-72
2023/12/18 01:53:56;;;;;;;17.60;8.13;;;9.10;99.90;;;;;;5051487;28;20059;-72
2023/12/18 01:56:25;;;;;;;16.52;7.47;;;9.00;99.90;;;;;;5051111;28;20514;-72
2023/12/18 01:58:53;;;;;;;17.15;6.97;;;9.00;99.90;;;;;;5050142;28;20119;-72
2023/12/18 02:01:19;;;;;;;17.65;8.02;;;9.10;99.90;;;;;;5050161;28;20567;-72
2023/12/18 02:03:46;;;;;;;16.35;6.72;;;9.00;99.90;;;;;;5050354;28;20053;-71
2023/12/18 02:06:13;;;;;;;16.10;7.53;;;9.00;99.90;;;;;;5051129;28;20041;-72
2023/12/18 02:08:39;;;;;;;13.45;6.97;;;9.00;99.90;;;;;;5049825;28;20056;-72
2023/12/18 02:11:05;;;;;;;14.60;6.82;;;9.10;99.90;;;;;;5050023;28;20037;-72
2023/12/18 02:13:31;;;;;;;19.63;6.95;;;9.10;99.90;;;;;;5051171;28;20041;-72
2023/12/18 02:15:59;;;;;;;17.40;6.57;;;9.10;99.90;;;;;;5051181;28;20582;-72
2023/12/18 02:18:25;;;;;;;17.52;6.97;;;9.10;99.90;;;;;;5051795;28;20037;-72
2023/12/18 02:20:51;;;;;;;20.48;6.90;;;9.10;99.90;;;;;;5055217;28;20040;-72
2023/12/18 02:23:16;;;;;;;15.55;6.15;;;9.10;99.90;;;;;;5054912;28;20393;-72
2023/12/18 02:25:42;;;;;;;21.88;8.80;;;9.20;99.90;;;;;;5054876;28;20489;-72
2023/12/18 02:28:10;;;;;;;22.73;6.10;;;9.10;99.90;;;;;;5054503;28;20040;-72
2023/12/18 02:30:36;;;;;;;18.27;7.53;;;9.20;99.90;;;;;;5055136;28;20040;-72
2023/12/18 02:33:01;;;;;;;16.15;7.13;;;9.20;99.90;;;;;;5055051;28;20037;-72
2023/12/18 02:35:27;;;;;;;19.08;6.65;;;9.20;99.90;;;;;;5054917;28;20429;-72
2023/12/18 02:37:53;;;;;;;22.92;7.40;;;9.20;99.90;;;;;;5092266;22;20432;-73
2023/12/18 02:40:18;;;;;;;12.73;5.85;;;9.20;99.90;;;;;;5074527;28;20033;-73
2023/12/18 02:42:44;;;;;;;20.65;7.18;;;9.20;99.90;;;;;;5056228;28;20033;-72
2023/12/18 02:45:10;;;;;;;19.38;6.10;;;9.20;99.90;;;;;;5056834;28;20123;-72
2023/12/18 02:47:36;;;;;;;16.55;7.63;;;9.20;99.90;;;;;;5056250;28;20036;-73
2023/12/18 02:50:02;;;;;;;21.58;6.47;;;9.30;99.90;;;;;;5074619;28;20036;-73
2023/12/18 02:52:28;;;;;;;14.32;5.25;;;9.20;99.90;;;;;;5056788;28;20051;-72
2023/12/18 02:54:53;;;;;;;23.98;7.22;;;9.20;99.90;;;;;;5056656;28;20044;-73
2023/12/18 02:57:19;;;;;;;14.98;6.30;;;9.20;99.90;;;;;;5056100;28;20075;-72
2023/12/18 02:59:45;;;;;;;17.35;7.15;;;9.20;99.90;;;;;;5074476;28;20032;-72
2023/12/18 03:02:10;;;;;;;18.17;7.75;;;9.20;99.90;;;;;;5056367;28;20041;-72
2023/12/18 03:04:40;;;;;;;22.27;6.72;;;9.30;99.90;;;;;;5056317;28;20470;-73
2023/12/18 03:07:06;;;;;;;17.75;6.85;;;9.20;99.90;;;;;;5055926;28;20547;-72
2023/12/18 03:09:32;;;;;;;15.73;7.55;;;9.30;99.90;;;;;;5056209;28;20112;-73
2023/12/18 03:11:57;;;;;;;18.70;7.43;;;9.20;99.90;;;;;;5074087;28;20044;-73
2023/12/18 03:14:23;;;;;;;29.08;8.07;;;9.20;99.90;;;;;;5039809;28;20052;-72
2023/12/18 03:16:49;;;;;;;16.75;7.03;;;9.20;99.90;;;;;;5073693;28;20507;-73
2023/12/18 03:19:15;;;;;;;24.35;9.48;;;9.20;99.90;;;;;;5056072;28;20044;-73
2023/12/18 03:21:41;;;;;;;19.58;8.25;;;9.20;99.90;;;;;;5055953;28;20115;-73
2023/12/18 03:24:07;;;;;;;14.30;7.32;;;9.10;99.90;;;;;;5055958;28;20124;-72
2023/12/18 03:26:32;;;;;;;17.65;7.32;;;9.10;99.90;;;;;;5055516;28;20407;-73
2023/12/18 03:28:58;;;;;;;20.10;7.40;;;9.20;99.90;;;;;;5055946;28;20032;-72
2023/12/18 03:31:24;;;;;;;23.23;7.75;;;9.10;99.90;;;;;;5055889;28;20500;-72
2023/12/18 03:33:49;;;;;;;21.27;8.80;;;9.10;99.90;;;;;;5055854;28;20121;-73
2023/12/18 03:36:15;;;;;;;22.63;7.72;;;9.10;99.90;;;;;;5055455;28;20040;-73
2023/12/18 03:38:40;;;;;;;22.20;8.32;;;9.10;99.90;;;;;;5073518;28;20047;-73
2023/12/18 03:41:06;;;;;;;17.40;8.90;;;9.10;99.90;;;;;;5055609;28;20617;-72
2023/12/18 03:43:31;;;;;;;16.17;8.48;;;9.10;99.90;;;;;;5073658;28;20036;-72
2023/12/18 03:45:57;;;;;;;15.25;8.88;;;9.10;99.90;;;;;;5055488;28;20040;-73
2023/12/18 03:48:23;;;;;;;20.20;9.68;;;9.00;99.90;;;;;;5055317;28;20120;-73
2023/12/18 03:50:48;;;;;;;23.35;8.95;;;9.10;99.90;;;;;;5073447;28;20067;-73
2023/12/18 03:53:14;;;;;;;21.73;10.25;;;9.00;99.90;;;;;;5038821;28;20040;-72
2023/12/18 03:55:39;;;;;;;19.65;9.25;;;9.10;99.90;;;;;;5073091;28;20044;-73
2023/12/18 03:58:05;;;;;;;20.80;9.57;;;9.00;99.90;;;;;;5055156;28;20127;-72
2023/12/18 04:00:31;;;;;;;28.27;10.68;;;9.00;99.90;;;;;;5055638;28;20040;-73
2023/12/18 04:02:57;;;;;;;20.17;10.02;;;9.00;99.90;;;;;;5055285;28;20040;-72
2023/12/18 04:05:24;;;;;;;26.10;9.88;;;9.10;99.90;;;;;;5055173;28;20044;-73
2023/12/18 04:07:50;;;;;;;22.00;9.98;;;9.00;99.90;;;;;;5054900;28;20047;-74
2023/12/18 04:10:16;;;;;;;19.52;10.57;;;9.00;99.90;;;;;;5055312;28;20050;-73
2023/12/18 04:12:42;;;;;;;23.40;11.13;;;9.00;99.90;;;;;;5073020;28;20555;-73
2023/12/18 04:15:09;;;;;;;23.90;10.30;;;9.00;99.90;;;;;;5055148;28;20100;-73
2023/12/18 04:17:35;;;;;;;25.88;10.27;;;9.00;99.90;;;;;;5072639;28;20044;-73
2023/12/18 04:20:01;;;;;;;21.52;9.73;;;9.00;99.90;;;;;;5054772;28;20090;-73
2023/12/18 04:22:27;;;;;;;24.45;11.27;;;8.90;99.90;;;;;;5072754;28;20037;-73
2023/12/18 04:24:52;;;;;;;20.67;10.95;;;8.90;99.90;;;;;;5054725;28;20052;-73
2023/12/18 04:27:18;;;;;;;24.65;11.50;;;9.00;99.90;;;;;;5054408;28;20131;-73
2023/12/18 04:29:44;;;;;;;23.77;10.60;;;9.00;99.90;;;;;;5055050;28;20036;-73
2023/12/18 04:32:09;;;;;;;19.00;9.70;;;9.00;99.90;;;;;;5038095;28;20072;-73
2023/12/18 04:34:35;;;;;;;26.63;10.10;;;9.00;99.90;;;;;;5054601;28;20127;-73
2023/12/18 04:37:00;;;;;;;20.02;9.82;;;8.90;99.90;;;;;;5054103;28;20550;-73
2023/12/18 04:39:26;;;;;;;22.60;11.00;;;9.00;99.90;;;;;;5054499;28;20086;-72
2023/12/18 04:41:51;;;;;;;24.75;10.30;;;9.00;99.90;;;;;;5054162;28;20063;-73
2023/12/18 04:44:17;;;;;;;21.88;10.57;;;9.00;99.90;;;;;;5054477;28;20046;-73
2023/12/18 04:46:43;;;;;;;28.20;10.25;;;9.00;99.90;;;;;;5054071;28;20051;-73
2023/12/18 04:49:09;;;;;;;24.45;9.75;;;9.00;99.90;;;;;;5054583;28;20561;-73
2023/12/18 04:51:35;;;;;;;27.15;11.38;;;8.90;99.90;;;;;;5054255;28;20033;-73
2023/12/18 04:54:01;;;;;;;27.42;11.38;;;8.90;99.90;;;;;;5054215;28;20040;-73
2023/12/18 04:56:27;;;;;;;28.27;10.68;;;9.00;99.90;;;;;;5053887;28;20040;-73
2023/12/18 04:58:53;;;;;;;29.95;11.15;;;9.00;99.90;;;;;;5054279;28;20048;-73
2023/12/18 05:01:18;;;;;;;24.60;11.63;;;9.00;99.90;;;;;;5054422;28;20426;-73
2023/12/18 05:03:44;;;;;;;22.95;10.07;;;9.00;99.90;;;;;;5054022;28;20128;-73
2023/12/18 05:06:19;;;;;;;22.77;10.18;;;9.00;99.90;;;;;;5053908;28;20044;-73
2023/12/18 05:08:46;;;;;;;20.17;11.23;;;9.00;99.90;;;;;;5037203;28;20043;-73
2023/12/18 05:11:11;;;;;;;28.63;11.70;;;9.00;99.90;;;;;;5054226;28;20041;-73
2023/12/18 05:13:37;;;;;;;26.80;10.45;;;9.00;99.90;;;;;;5053943;28;20539;-73
2023/12/18 05:16:03;;;;;;;25.88;10.65;;;9.00;99.90;;;;;;5053886;28;20044;-73
2023/12/18 05:18:28;;;;;;;20.63;9.93;;;9.00;99.90;;;;;;5053577;28;20036;-73
2023/12/18 05:20:57;;;;;;;23.58;10.00;;;9.00;99.90;;;;;;5054011;28;20137;-73
2023/12/18 05:23:23;;;;;;;21.13;10.75;;;9.00;99.90;;;;;;5052477;28;20682;-73
2023/12/18 05:25:49;;;;;;;22.45;10.35;;;9.00;99.90;;;;;;5065205;28;20036;-73
2023/12/18 05:28:14;;;;;;;20.75;10.80;;;9.00;99.90;;;;;;5068487;28;20124;-73
2023/12/18 05:30:40;;;;;;;23.50;10.77;;;9.00;99.90;;;;;;5087724;28;20103;-73
2023/12/18 05:33:06;;;;;;;25.23;10.85;;;9.00;99.90;;;;;;5068847;28;20044;-73
2023/12/18 05:35:31;;;;;;;23.33;10.63;;;9.00;99.90;;;;;;5073651;28;20097;-73
2023/12/18 05:37:57;;;;;;;32.53;11.32;;;9.00;99.90;;;;;;5073611;28;20395;-73
2023/12/18 05:40:23;;;;;;;18.30;9.68;;;9.00;99.90;;;;;;5073731;28;20123;-73
2023/12/18 05:42:49;;;;;;;25.02;11.25;;;9.00;99.90;;;;;;5073877;28;20445;-73
2023/12/18 05:45:15;;;;;;;24.33;10.90;;;9.00;99.90;;;;;;5073893;28;20040;-73
2023/12/18 05:47:40;;;;;;;21.30;10.80;;;9.00;99.90;;;;;;5073208;28;20036;-73
2023/12/18 05:50:07;;;;;;;22.83;10.57;;;8.90;99.90;;;;;;5073422;28;20127;-72
2023/12/18 05:52:32;;;;;;;30.55;11.95;;;8.90;99.90;;;;;;5073631;28;20093;-73
2023/12/18 05:54:58;;;;;;;19.05;10.50;;;8.90;99.90;;;;;;5077291;28;20508;-73
2023/12/18 05:57:23;;;;;;;20.70;11.45;;;9.00;99.90;;;;;;5095596;28;20123;-73
2023/12/18 05:59:49;;;;;;;19.40;11.15;;;9.00;99.90;;;;;;5077631;28;20040;-72
2023/12/18 06:02:14;;;;;;;21.05;10.50;;;8.90;99.90;;;;;;5077544;28;20518;-72
2023/12/18 06:04:43;;;;;;;25.00;12.75;;;8.90;99.90;;;;;;5077434;28;20066;-72
2023/12/18 06:07:09;;;;;;;29.80;11.88;;;8.90;99.90;;;;;;5077095;28;20111;-73
2023/12/18 06:09:35;;;;;;;22.17;10.23;;;9.00;99.90;;;;;;5095771;28;20107;-72
2023/12/18 06:12:00;;;;;;;23.02;11.60;;;9.00;99.90;;;;;;5077638;28;20506;-72
2023/12/18 06:14:26;;;;;;;22.60;10.55;;;9.00;99.90;;;;;;5077346;28;20039;-73
2023/12/18 06:16:51;;;;;;;26.25;11.35;;;9.00;99.90;;;;;;5077192;28;20112;-73
2023/12/18 06:19:17;;;;;;;18.58;10.70;;;9.00;99.90;;;;;;5095122;28;20048;-73
2023/12/18 06:21:42;;;;;;;19.30;10.18;;;9.10;99.90;;;;;;5057052;28;20419;-73
2023/12/18 06:24:08;;;;;;;22.15;11.00;;;9.00;99.90;;;;;;5075340;28;20102;-73
2023/12/18 06:26:34;;;;;;;27.33;9.90;;;9.00;99.90;;;;;;5074521;28;20579;-73
2023/12/18 06:28:59;;;;;;;22.77;9.98;;;9.10;99.90;;;;;;5075003;28;20041;-73
2023/12/18 06:31:25;;;;;;;19.60;10.45;;;9.00;99.90;;;;;;5090122;28;20123;-73
2023/12/18 06:33:50;;;;;;;26.55;12.32;;;9.10;99.90;;;;;;5068507;28;20111;-72
2023/12/18 06:36:17;;;;;;;22.70;10.57;;;9.10;99.90;;;;;;5076638;28;20070;-73
2023/12/18 06:38:43;;;;;;;20.98;10.73;;;9.00;99.90;;;;;;5076621;28;20097;-73
2023/12/18 06:41:09;;;;;;;25.10;10.38;;;9.00;99.90;;;;;;5094912;28;20047;-73
2023/12/18 06:43:34;;;;;;;25.35;12.32;;;9.00;99.90;;;;;;5094904;28;20040;-72
2023/12/18 06:46:00;;;;;;;24.35;10.45;;;9.00;99.90;;;;;;5076357;28;20040;-73
2023/12/18 06:48:26;;;;;;;20.48;8.98;;;9.10;99.90;;;;;;5094467;28;20467;-73
2023/12/18 06:50:52;;;;;;;24.20;9.55;;;9.10;99.90;;;;;;5076931;28;20529;-72
2023/12/18 06:53:18;;;;;;;20.13;9.35;;;9.00;99.90;;;;;;5076869;28;20090;-73
2023/12/18 06:55:44;;;;;;;27.08;10.38;;;9.10;99.90;;;;;;5076427;28;20511;-75
2023/12/18 06:58:09;;;;;;;26.05;12.95;;;9.20;99.90;;;;;;5076431;28;20044;-75
2023/12/18 07:00:35;;;;;;;25.10;11.77;;;9.00;99.90;;;;;;5076478;28;20411;-75
2023/12/18 07:03:01;;;;;;;26.13;10.95;;;9.10;99.90;;;;;;5066112;28;20032;-75
2023/12/18 07:05:29;;;;;;;23.58;10.88;;;9.10;99.90;;;;;;5066781;28;20492;-75
2023/12/18 07:07:55;;;;;;;22.50;10.27;;;9.10;99.90;;;;;;5062753;28;20380;-75
2023/12/18 07:10:21;;;;;;;21.80;9.98;;;9.10;99.90;;;;;;5067790;28;20048;-75
2023/12/18 07:12:47;;;;;;;26.92;10.73;;;9.20;99.90;;;;;;5076326;28;20700;-75
2023/12/18 07:15:13;;;;;;;24.05;10.20;;;9.10;99.90;;;;;;5076250;28;20078;-75
2023/12/18 07:17:38;;;;;;;25.17;11.10;;;9.10;99.90;;;;;;5075795;28;20457;-75
2023/12/18 07:20:05;;;;;;;27.83;10.85;;;9.10;99.90;;;;;;5076211;28;20081;-75
2023/12/18 07:22:33;;;;;;;24.63;10.82;;;9.10;99.90;;;;;;5076339;28;20100;-75
2023/12/18 07:24:58;;;;;;;23.67;11.18;;;9.10;99.90;;;;;;5076385;28;20054;-75
2023/12/18 07:27:24;;;;;;;22.92;11.32;;;9.10;99.90;;;;;;5075668;28;20551;-75
2023/12/18 07:29:50;;;;;;;19.73;11.00;;;9.10;99.90;;;;;;5075882;28;20028;-75
2023/12/18 07:32:16;;;;;;;23.08;10.77;;;9.10;99.90;;;;;;5094072;28;20402;-75
2023/12/18 07:34:42;;;;;;;25.00;10.23;;;9.20;99.90;;;;;;5075847;28;20051;-75
2023/12/18 07:37:07;;;;;;;27.27;10.57;;;9.10;99.90;;;;;;5075468;28;20050;-75
2023/12/18 07:39:33;;;;;;;25.88;11.65;;;9.20;99.90;;;;;;5075897;28;20040;-75
2023/12/18 07:41:58;;;;;;;22.33;10.85;;;9.10;99.90;;;;;;5076028;28;20075;-75
2023/12/18 07:44:24;;;;;;;29.48;12.13;;;9.10;99.90;;;;;;5075964;28;20047;-75
2023/12/18 07:46:52;;;;;;;24.30;11.68;;;9.10;99.90;;;;;;5075207;28;20036;-75
2023/12/18 07:49:18;;;;;;;21.65;11.30;;;9.20;99.90;;;;;;5075722;28;20483;-75
2023/12/18 07:51:44;;;;;;;38.95;13.43;;;9.20;99.90;;;;;;5075825;28;20047;-75
2023/12/18 07:54:09;;;;;;;30.55;11.45;;;9.10;99.90;;;;;;5075673;28;20028;-75
2023/12/18 07:56:35;;;;;;;33.13;12.30;;;9.20;99.90;;;;;;5075153;28;20044;-75
2023/12/18 07:59:00;;;;;;;24.10;12.10;;;9.10;99.90;;;;;;5075300;28;20040;-76
2023/12/18 08:01:26;;;;;;;21.98;11.43;;;9.20;99.90;;;;;;5075475;28;20042;-75
2023/12/18 08:03:52;;;;;;;28.95;13.25;;;9.20;99.90;;;;;;5075288;28;20040;-75
2023/12/18 08:06:17;;;;;;;27.30;11.65;;;9.10;99.90;;;;;;5075127;28;20040;-75
2023/12/18 08:08:43;;;;;;;29.10;14.02;;;9.10;99.90;;;;;;5075165;28;20055;-76
2023/12/18 08:11:09;;;;;;;22.00;13.05;;;9.10;99.90;;;;;;5048181;28;20060;-75
2023/12/18 08:13:38;;;;;;;28.63;12.18;;;9.10;99.90;;;;;;5055266;28;20431;-75
2023/12/18 08:16:07;;;;;;;23.27;12.63;;;9.20;99.90;;;;;;5087311;28;20048;-75
2023/12/18 08:18:33;;;;;;;28.58;13.50;;;9.20;99.90;;;;;;5088237;28;20526;-75
2023/12/18 08:20:59;;;;;;;30.38;13.88;;;9.10;99.90;;;;;;5054883;28;20036;-75
2023/12/18 08:23:26;;;;;;;30.00;12.55;;;9.10;99.90;;;;;;5072901;28;20039;-75
2023/12/18 08:25:52;;;;;;;26.77;13.18;;;9.10;99.90;;;;;;5072627;28;20036;-75
2023/12/18 08:28:17;;;;;;;27.45;13.13;;;9.20;99.90;;;;;;5088372;28;20029;-75
2023/12/18 08:30:44;;;;;;;28.95;13.85;;;9.10;99.90;;;;;;5088235;28;20127;-75
2023/12/18 08:33:09;;;;;;;23.60;12.52;;;9.20;99.90;;;;;;5054761;28;20047;-75
2023/12/18 08:35:35;;;;;;;30.08;14.00;;;9.10;99.90;;;;;;5088352;28;20036;-75
2023/12/18 08:38:01;;;;;;;29.88;12.18;;;9.20;99.90;;;;;;5126568;22;20044;-75
2023/12/18 08:40:27;;;;;;;32.33;14.45;;;9.20;99.90;;;;;;5098626;28;20035;-76
2023/12/18 08:42:52;;;;;;;27.10;14.18;;;9.20;99.90;;;;;;5080730;28;20127;-75
2023/12/18 08:45:18;;;;;;;30.33;14.38;;;9.20;99.90;;;;;;5098124;28;20072;-75
2023/12/18 08:47:44;;;;;;;31.77;13.70;;;9.20;99.90;;;;;;5087027;28;20055;-76
2023/12/18 08:50:09;;;;;;;31.23;15.40;;;9.10;99.90;;;;;;5077524;28;20112;-76
2023/12/18 08:52:35;;;;;;;31.63;13.45;;;9.20;99.90;;;;;;5077434;28;20033;-76
2023/12/18 08:55:02;;;;;;;24.73;13.90;;;9.30;99.90;;;;;;5078972;28;20070;-76
2023/12/18 08:57:28;;;;;;;29.27;13.57;;;9.20;99.90;;;;;;5076526;28;20408;-76
2023/12/18 08:59:55;;;;;;;29.83;13.55;;;9.20;99.90;;;;;;5076336;28;20040;-75
2023/12/18 09:02:20;;;;;;;33.15;13.30;;;9.20;99.90;;;;;;5058084;28;20078;-75
2023/12/18 09:04:46;;;;;;;28.48;14.23;;;9.30;99.90;;;;;;5077155;28;20430;-76
2023/12/18 09:07:13;;;;;;;34.10;14.73;;;9.20;99.90;;;;;;5075719;28;20037;-76
2023/12/18 09:09:39;;;;;;;29.45;13.77;;;9.10;99.90;;;;;;5076840;28;20036;-76
2023/12/18 09:12:08;;;;;;;33.85;14.90;;;9.20;99.90;;;;;;5059164;28;20079;-75
2023/12/18 09:14:35;;;;;;;30.67;13.50;;;9.20;99.90;;;;;;5075837;28;20512;-75
2023/12/18 09:17:01;;;;;;;29.65;12.93;;;9.20;99.90;;;;;;5076190;28;20040;-74
2023/12/18 09:19:29;;;;;;;27.25;15.18;;;9.30;99.90;;;;;;5077172;28;20135;-76
2023/12/18 09:21:55;;;;;;;32.65;15.30;;;9.30;99.90;;;;;;5076266;28;20047;-76
2023/12/18 09:24:20;;;;;;;38.22;15.60;;;9.30;99.90;;;;;;5076804;28;20048;-76
2023/12/18 09:26:46;;;;;;;29.38;14.55;;;9.40;99.90;;;;;;5076620;28;20066;-76
2023/12/18 09:29:12;;;;;;;31.60;15.73;;;9.30;99.90;;;;;;5078298;28;20040;-76
2023/12/18 09:31:37;;;;;;;34.88;15.57;;;9.30;99.90;;;;;;5076318;28;20488;-76
2023/12/18 09:34:03;;;;;;;35.20;16.63;;;9.30;99.90;;;;;;5074363;28;20124;-77
2023/12/18 09:36:29;;;;;;;35.25;18.17;;;9.20;99.90;;;;;;5076572;28;20464;-78
2023/12/18 09:38:54;;;;;;;29.75;16.73;;;9.30;99.90;;;;;;5075318;28;20502;-77
2023/12/18 09:41:24;;;;;;;26.92;16.98;;;9.20;99.90;;;;;;5075276;28;20036;-77
2023/12/18 09:43:53;;;;;;;34.35;16.73;;;9.30;99.90;;;;;;5076519;28;20049;-77
2023/12/18 09:46:22;;;;;;;28.85;17.08;;;9.20;99.90;;;;;;5074795;28;20082;-77
2023/12/18 09:48:52;;;;;;;34.63;17.83;;;9.20;99.90;;;;;;5075149;28;20043;-77
2023/12/18 09:51:23;;;;;;;37.05;17.08;;;9.20;99.90;;;;;;5072260;28;20086;-77
2023/12/18 09:53:49;;;;;;;33.85;15.82;;;9.30;99.90;;;;;;5074883;28;20554;-77
2023/12/18 09:56:17;;;;;;;41.03;18.60;;;9.20;99.90;;;;;;5076152;28;20050;-77
2023/12/18 09:58:45;;;;;;;32.33;17.30;;;9.20;99.90;;;;;;5073910;28;20041;-77
2023/12/18 10:01:10;;;;;;;29.60;16.23;;;9.30;99.90;;;;;;5057305;28;20055;-77
2023/12/18 10:03:36;;;;;;;31.08;16.95;;;9.30;99.90;;;;;;5074470;28;20029;-78
2023/12/18 10:06:03;;;;;;;31.27;17.83;;;9.20;99.90;;;;;;5075145;28;20041;-77
2023/12/18 10:08:29;;;;;;;29.38;15.75;;;9.30;99.90;;;;;;5075032;28;20039;-77
2023/12/18 10:10:55;;;;;;;35.08;16.65;;;9.30;99.90;;;;;;5075982;28;20044;-77
2023/12/18 10:13:21;;;;;;;37.53;15.75;;;9.30;99.90;;;;;;5075372;28;20407;-78
2023/12/18 10:15:48;;;;;;;30.13;16.10;;;9.30;99.90;;;;;;5076060;28;20087;-77
2023/12/18 10:18:16;;;;;;;34.97;19.45;;;9.40;99.90;;;;;;5075825;28;20090;-77
2023/12/18 10:20:42;;;;;;;36.33;17.02;;;9.40;99.90;;;;;;5076995;28;20047;-77
2023/12/18 10:23:08;;;;;;;30.75;17.20;;;9.40;99.90;;;;;;5075992;28;20044;-78
2023/12/18 10:25:35;;;;;;;28.05;15.10;;;9.40;99.90;;;;;;5077448;28;20131;-77
2023/12/18 10:28:01;;;;;;;35.00;17.58;;;9.30;99.90;;;;;;5076853;28;20484;-76
2023/12/18 10:30:29;;;;;;;30.13;16.98;;;9.40;99.90;;;;;;5074742;28;20033;-76
2023/12/18 10:32:56;;;;;;;38.72;17.17;;;9.40;99.90;;;;;;5075843;28;20083;-76
2023/12/18 10:35:22;;;;;;;34.83;17.83;;;9.40;99.90;;;;;;5075034;28;20044;-76
2023/12/18 10:37:52;;;;;;;33.72;16.92;;;9.50;99.90;;;;;;5074708;28;20048;-76
2023/12/18 10:40:19;;;;;;;37.85;16.00;;;9.60;99.90;;;;;;5077295;28;20047;-77
2023/12/18 10:43:01;;;;;;;32.75;17.13;;;9.60;99.90;;;;;;5062777;28;20033;-77
2023/12/18 10:45:28;;;;;;;39.92;16.48;;;9.50;99.90;;;;;;5080804;28;20092;-77
2023/12/18 10:47:56;;;;;;;29.92;16.75;;;9.60;99.90;;;;;;5079576;28;20488;-77
2023/12/18 10:50:23;;;;;;;31.85;15.77;;;9.60;99.90;;;;;;5078183;28;20067;-77
2023/12/18 10:52:50;;;;;;;27.50;15.82;;;9.60;99.90;;;;;;5078853;28;20036;-77
2023/12/18 10:55:16;;;;;;;30.45;15.82;;;9.60;99.90;;;;;;5078872;28;20040;-77
2023/12/18 10:57:44;;;;;;;40.28;16.92;;;9.80;99.90;;;;;;5078567;28;20044;-76
2023/12/18 11:00:14;;;;;;;27.05;15.93;;;9.70;99.90;;;;;;5081250;28;20044;-76
2023/12/18 11:02:41;;;;;;;37.80;15.85;;;9.70;99.90;;;;;;5081382;28;20119;-77
2023/12/18 11:05:08;;;;;;;36.72;16.88;;;9.60;99.90;;;;;;5078655;28;20044;-75
2023/12/18 11:07:34;;;;;;;37.05;16.63;;;9.70;99.90;;;;;;5077095;28;20051;-75
2023/12/18 11:10:02;;;;;;;31.42;17.33;;;9.70;99.90;;;;;;5061075;28;20083;-76
2023/12/18 11:12:29;;;;;;;37.17;16.40;;;9.70;99.90;;;;;;5073717;28;20431;-76
2023/12/18 11:15:19;;;;;;;36.72;17.90;;;9.60;99.90;;;;;;5074523;28;20110;-76
2023/12/18 11:17:56;;;;;;;37.10;17.30;;;9.60;99.90;;;;;;5074050;28;20527;-75
2023/12/18 11:20:42;;;;;;;36.03;18.17;;;9.60;99.90;;;;;;5074153;28;20044;-75
2023/12/18 11:23:10;;;;;;;32.63;17.15;;;9.70;99.90;;;;;;5074529;28;20564;-75
2023/12/18 11:25:37;;;;;;;30.75;17.00;;;9.60;99.90;;;;;;5058635;28;20472;-76
2023/12/18 11:28:04;;;;;;;42.58;18.90;;;9.70;99.90;;;;;;5074694;28;20036;-75
2023/12/18 11:30:35;;;;;;;36.72;17.35;;;9.70;99.90;;;;;;5074547;28;20369;-76
2023/12/18 11:33:10;;;;;;;33.70;17.00;;;9.70;99.90;;;;;;5074661;28;20555;-76
2023/12/18 11:35:37;;;;;;;35.08;15.98;;;9.60;99.90;;;;;;5058945;28;20048;-75
2023/12/18 11:38:02;;;;;;;33.20;16.90;;;9.60;99.90;;;;;;5058415;28;20037;-76
2023/12/18 11:40:32;;;;;;;29.77;17.73;;;9.60;99.90;;;;;;5077150;28;20037;-76
2023/12/18 11:42:58;;;;;;;32.70;16.55;;;9.60;99.90;;;;;;5077213;28;20571;-75
2023/12/18 11:45:27;;;;;;;40.58;17.45;;;9.60;99.90;;;;;;5059640;28;20055;-75
2023/12/18 11:47:57;;;;;;;33.70;17.63;;;9.60;99.90;;;;;;5075547;28;20068;-75
2023/12/18 11:50:26;;;;;;;33.17;18.23;;;9.70;99.90;;;;;;5075812;28;20040;-76
2023/12/18 11:52:59;;;;;;;33.65;16.77;;;9.60;99.90;;;;;;5059401;28;20028;-75
2023/12/18 11:55:37;;;;;;;31.08;16.90;;;9.60;99.90;;;;;;5060121;28;20538;-76
2023/12/18 11:58:04;;;;;;;30.70;16.63;;;9.60;99.90;;;;;;5077238;28;20051;-76
2023/12/18 12:00:34;;;;;;;33.65;16.70;;;9.60;99.90;;;;;;5079143;28;20033;-76
2023/12/18 12:03:03;;;;;;;31.60;17.20;;;9.60;99.90;;;;;;5078416;28;20041;-77
2023/12/18 12:05:31;;;;;;;38.03;16.10;;;9.60;99.90;;;;;;5078213;28;20079;-76
2023/12/18 12:07:57;;;;;;;31.98;17.02;;;9.60;99.90;;;;;;5076440;28;20392;-77
2023/12/18 12:10:23;;;;;;;32.05;17.08;;;9.70;99.90;;;;;;5076008;28;20124;-76
2023/12/18 12:12:56;;;;;;;34.75;16.42;;;9.60;99.90;;;;;;5078446;28;20056;-78
2023/12/18 12:15:24;;;;;;;36.92;17.15;;;9.60;99.90;;;;;;5077032;28;20068;-76
2023/12/18 12:18:10;;;;;;;29.23;17.00;;;9.60;99.90;;;;;;5076811;28;20047;-76
2023/12/18 12:20:35;;;;;;;33.67;17.02;;;9.60;99.90;;;;;;5076456;28;20048;-76
2023/12/18 12:23:01;;;;;;;27.75;17.60;;;9.60;99.90;;;;;;5075835;28;20067;-76
2023/12/18 12:25:26;;;;;;;36.03;18.48;;;9.70;99.90;;;;;;5074758;28;20040;-76
2023/12/18 12:27:52;;;;;;;40.28;17.02;;;9.60;99.90;;;;;;5074965;28;20041;-77
2023/12/18 12:30:18;;;;;;;29.63;16.17;;;9.60;99.90;;;;;;5076580;28;20115;-76
2023/12/18 12:32:46;;;;;;;29.20;16.15;;;9.60;99.90;;;;;;5075250;28;20043;-76
2023/12/18 12:35:12;;;;;;;33.00;16.45;;;9.70;99.90;;;;;;5077097;28;20040;-76
2023/12/18 12:37:40;;;;;;;27.90;15.15;;;9.60;99.90;;;;;;5075061;28;20048;-76